Time;durP1;ratioP1;P1;durP2;ratioP2;P2;SDS_P1;SDS_P2;PMS_P1;PMS_P2;Temp;Humidity;BMP_temperature;BMP_pressure;BME280_temperature;BME280_humidity;BME280_pressure;Samples;Min_cycle;Max_cycle;Signal;HPM_P1;HPM_P2
2023/11/24 00:02:13;;;;;;;3.05;0.65;;;;;;;7.18;52.10;98925.31;5080423;28;20028;-65
2023/11/24 00:04:39;;;;;;;6.30;0.80;;;;;;;7.22;51.54;98998.75;5082216;28;20032;-65
2023/11/24 00:07:04;;;;;;;4.10;0.77;;;;;;;7.36;51.42;98994.88;5082085;28;20033;-66
2023/11/24 00:09:30;;;;;;;4.78;0.68;;;;;;;7.36;52.72;98994.88;5080093;28;20044;-65
2023/11/24 00:11:58;;;;;;;2.97;0.63;;;;;;;7.10;51.52;98982.59;5077722;28;20043;-65
2023/11/24 00:14:24;;;;;;;3.92;0.40;;;;;;;7.36;48.84;99021.63;5078497;28;20501;-66
2023/11/24 00:16:49;;;;;;;2.92;0.50;;;;;;;6.91;48.06;99021.03;5082366;28;20032;-65
2023/11/24 00:19:15;;;;;;;2.90;0.55;;;;;;;7.13;47.81;99018.78;5083043;28;20102;-65
2023/11/24 00:21:46;;;;;;;2.78;0.68;;;;;;;6.95;48.96;99030.25;5082676;28;20097;-65
2023/11/24 00:24:12;;;;;;;3.50;0.57;;;;;;;6.79;48.56;98983.50;5080832;28;20039;-67
2023/11/24 00:26:37;;;;;;;2.47;0.57;;;;;;;7.05;48.08;99011.84;5085797;28;20036;-67
2023/11/24 00:29:03;;;;;;;2.40;0.43;;;;;;;7.19;48.46;99029.41;5086050;28;20419;-66
2023/11/24 00:31:29;;;;;;;3.40;0.70;;;;;;;7.21;48.42;99031.84;5084383;28;20051;-65
2023/11/24 00:33:58;;;;;;;1.92;0.30;;;;;;;7.21;48.42;98989.06;5079342;28;20043;-67
2023/11/24 00:36:24;;;;;;;4.20;0.60;;;;;;;7.12;48.94;99020.66;5073253;28;20075;-65
2023/11/24 00:38:50;;;;;;;3.15;0.43;;;;;;;7.14;47.87;99034.59;5081180;28;20142;-65
2023/11/24 00:41:19;;;;;;;1.67;0.45;;;;;;;7.10;47.96;99043.28;5062645;28;20036;-65
2023/11/24 00:43:46;;;;;;;5.32;0.40;;;;;;;7.35;49.54;99041.41;5080703;28;20033;-65
2023/11/24 00:46:12;;;;;;;3.85;0.57;;;;;;;7.13;48.92;99030.28;5080280;28;20051;-66
2023/11/24 00:48:38;;;;;;;2.67;0.43;;;;;;;7.10;49.92;99030.72;5079849;28;20041;-65
2023/11/24 00:51:04;;;;;;;2.20;0.68;;;;;;;7.09;49.77;99041.66;5081048;28;20033;-65
2023/11/24 00:53:30;;;;;;;2.13;0.57;;;;;;;6.96;49.45;99037.25;5078650;28;20027;-65
2023/11/24 00:55:56;;;;;;;2.03;0.40;;;;;;;7.05;49.57;99036.75;5080263;28;20391;-66
2023/11/24 00:58:22;;;;;;;3.17;0.35;;;;;;;7.12;48.69;99033.16;5078584;28;20056;-65
2023/11/24 01:00:48;;;;;;;1.13;0.30;;;;;;;7.20;48.59;99032.91;5079726;28;20024;-65
2023/11/24 01:03:13;;;;;;;3.47;0.50;;;;;;;7.00;47.76;99033.91;5080078;28;20039;-65
2023/11/24 01:05:38;;;;;;;2.65;0.43;;;;;;;6.87;47.65;99017.97;5080257;28;20053;-66
2023/11/24 01:08:04;;;;;;;1.23;0.38;;;;;;;7.13;48.02;99037.50;5078732;28;20612;-65
2023/11/24 01:10:29;;;;;;;3.28;0.50;;;;;;;7.09;48.33;99030.97;5079978;28;20032;-66
2023/11/24 01:12:55;;;;;;;3.88;0.43;;;;;;;6.97;48.17;99037.00;5078584;28;20081;-66
2023/11/24 01:15:21;;;;;;;4.68;0.47;;;;;;;6.88;48.95;99040.19;5078522;28;20096;-65
2023/11/24 01:17:46;;;;;;;2.78;0.50;;;;;;;7.03;48.84;99038.81;5079656;28;20024;-66
2023/11/24 01:20:14;;;;;;;1.25;0.50;;;;;;;6.91;48.32;99039.75;5080774;28;20572;-65
2023/11/24 01:22:40;;;;;;;2.92;0.47;;;;;;;6.89;47.83;99005.22;5080714;28;20029;-66
2023/11/24 01:25:07;;;;;;;3.08;0.30;;;;;;;7.00;47.18;99036.56;5080349;28;20398;-65
2023/11/24 01:27:33;;;;;;;4.50;0.50;;;;;;;7.06;47.03;99051.75;5078927;28;20055;-66
2023/11/24 01:29:58;;;;;;;2.25;0.55;;;;;;;7.10;47.26;99054.81;5080017;28;20024;-66
2023/11/24 01:32:24;;;;;;;3.33;0.40;;;;;;;7.02;47.90;99049.75;5044704;28;20028;-65
2023/11/24 01:34:49;;;;;;;3.85;0.47;;;;;;;7.06;48.28;99048.25;5078743;28;20041;-65
2023/11/24 01:37:14;;;;;;;1.90;0.40;;;;;;;6.97;47.65;99044.22;5078995;28;20178;-66
2023/11/24 01:39:40;;;;;;;6.32;0.90;;;;;;;7.10;46.66;99038.75;5078901;28;20036;-65
2023/11/24 01:42:06;;;;;;;3.00;0.70;;;;;;;7.01;47.67;99032.03;5078943;28;20017;-65
2023/11/24 01:44:31;;;;;;;3.85;0.60;;;;;;;7.10;48.69;99037.94;5076662;28;20024;-65
2023/11/24 01:46:57;;;;;;;1.63;0.30;;;;;;;6.94;47.11;99044.66;5077995;28;20052;-65
2023/11/24 01:49:23;;;;;;;1.08;0.35;;;;;;;7.04;47.48;99035.09;5078740;28;20084;-65
2023/11/24 01:51:50;;;;;;;2.88;0.68;;;;;;;7.10;47.41;99048.63;5078546;28;20078;-66
2023/11/24 01:54:18;;;;;;;3.00;0.68;;;;;;;6.99;47.71;99026.13;5078319;28;20024;-65
2023/11/24 01:56:45;;;;;;;2.33;0.40;;;;;;;7.03;47.71;99054.88;5073171;28;20032;-65
2023/11/24 01:59:13;;;;;;;3.90;0.95;;;;;;;7.02;48.59;99047.88;5075210;28;20051;-65
2023/11/24 02:01:39;;;;;;;2.97;0.65;;;;;;;6.96;48.26;99045.28;5079150;28;20495;-66
2023/11/24 02:04:05;;;;;;;2.55;0.55;;;;;;;6.86;48.21;99016.34;5077524;28;20032;-66
2023/11/24 02:06:30;;;;;;;4.38;0.85;;;;;;;6.89;48.29;99039.13;5078770;28;20082;-66
2023/11/24 02:08:56;;;;;;;3.30;0.60;;;;;;;6.95;49.18;99025.72;5061030;28;20032;-65
2023/11/24 02:11:22;;;;;;;3.95;0.47;;;;;;;6.85;47.84;99020.03;5078234;28;20056;-66
2023/11/24 02:13:49;;;;;;;2.05;0.60;;;;;;;7.09;49.07;99041.66;5077865;28;20097;-65
2023/11/24 02:16:14;;;;;;;6.35;0.60;;;;;;;7.10;48.65;99037.94;5059125;28;20032;-65
2023/11/24 02:18:40;;;;;;;3.38;0.52;;;;;;;7.14;47.85;99036.47;5074081;28;20039;-66
2023/11/24 02:21:06;;;;;;;3.08;0.50;;;;;;;7.20;48.47;99039.06;5075182;28;20036;-66
2023/11/24 02:23:31;;;;;;;6.32;0.85;;;;;;;7.28;49.03;99036.13;5079678;28;20036;-66
2023/11/24 02:25:56;;;;;;;7.28;1.13;;;;;;;7.25;50.18;99031.22;5079459;28;20039;-66
2023/11/24 02:28:22;;;;;;;4.00;0.70;;;;;;;7.15;49.64;99030.91;5078693;28;20025;-65
2023/11/24 02:30:47;;;;;;;3.03;0.57;;;;;;;7.09;50.54;99018.41;5077214;28;20502;-65
2023/11/24 02:33:13;;;;;;;4.70;0.90;;;;;;;7.03;50.60;99006.72;5076742;28;20032;-65
2023/11/24 02:35:42;;;;;;;5.65;0.90;;;;;;;7.20;50.81;99008.84;5043798;28;20286;-65
2023/11/24 02:38:07;;;;;;;4.55;0.98;;;;;;;7.35;52.43;99019.16;5076141;28;20028;-65
2023/11/24 02:40:33;;;;;;;3.92;0.80;;;;;;;6.91;51.44;98981.72;5086977;28;20463;-65
2023/11/24 02:42:59;;;;;;;5.03;1.10;;;;;;;7.14;51.53;99001.69;5092077;28;20038;-65
2023/11/24 02:45:24;;;;;;;6.80;0.70;;;;;;;7.16;51.07;99010.31;5091851;28;20111;-66
2023/11/24 02:47:50;;;;;;;3.53;0.70;;;;;;;7.18;51.23;99017.06;5080436;28;20028;-65
2023/11/24 02:50:16;;;;;;;7.07;1.25;;;;;;;7.00;52.93;99004.50;5072390;28;20510;-65
2023/11/24 02:52:41;;;;;;;7.07;1.55;;;;;;;6.86;53.56;99005.66;5076402;28;20033;-65
2023/11/24 02:55:07;;;;;;;4.63;1.25;;;;;;;6.94;53.71;99000.00;5077775;28;20074;-65
2023/11/24 02:57:33;;;;;;;6.43;1.63;;;;;;;6.82;53.14;98967.00;5076922;28;20028;-67
2023/11/24 02:59:59;;;;;;;4.10;0.90;;;;;;;6.91;54.01;98983.59;5076919;28;20129;-65
2023/11/24 03:02:24;;;;;;;5.95;1.27;;;;;;;6.91;53.49;98986.28;5076587;28;20089;-65
2023/11/24 03:04:49;;;;;;;8.18;1.10;;;;;;;6.96;54.31;98989.94;5078173;28;20028;-65
2023/11/24 03:07:15;;;;;;;6.18;1.38;;;;;;;6.95;55.24;98988.28;5077046;28;20033;-65
2023/11/24 03:09:40;;;;;;;9.95;1.67;;;;;;;7.06;53.98;98995.59;5076506;28;20123;-66
2023/11/24 03:12:07;;;;;;;6.18;1.20;;;;;;;7.01;54.80;98962.50;5076725;28;20025;-65
2023/11/24 03:14:33;;;;;;;7.72;1.00;;;;;;;7.07;55.57;98981.16;5076935;28;20025;-65
2023/11/24 03:16:59;;;;;;;5.95;1.20;;;;;;;7.06;55.46;98951.97;5077160;28;20031;-66
2023/11/24 03:19:25;;;;;;;6.72;1.45;;;;;;;7.05;55.81;98991.28;5076294;28;20151;-66
2023/11/24 03:21:51;;;;;;;4.90;1.27;;;;;;;6.96;52.93;98963.19;5076404;28;20024;-65
2023/11/24 03:24:16;;;;;;;7.72;1.70;;;;;;;7.01;55.18;98957.97;5079705;28;20035;-66
2023/11/24 03:26:42;;;;;;;7.60;1.40;;;;;;;7.07;54.31;98981.16;5081371;28;20021;-65
2023/11/24 03:29:07;;;;;;;6.13;1.30;;;;;;;7.12;53.19;98967.16;5080618;28;20090;-67
2023/11/24 03:31:33;;;;;;;10.25;1.48;;;;;;;7.08;54.89;98955.25;5078741;28;20881;-66
2023/11/24 03:34:00;;;;;;;5.00;1.27;;;;;;;7.17;55.68;98964.63;5061993;28;20036;-66
2023/11/24 03:36:26;;;;;;;4.65;0.88;;;;;;;7.07;54.35;98941.06;5079710;28;20039;-66
2023/11/24 03:38:51;;;;;;;6.95;1.42;;;;;;;7.05;54.11;98947.66;5080019;28;20024;-66
2023/11/24 03:41:17;;;;;;;8.18;1.40;;;;;;;7.18;54.30;98944.03;5078401;28;20055;-66
2023/11/24 03:43:42;;;;;;;6.60;1.60;;;;;;;7.14;54.76;98945.53;5079630;28;20154;-66
2023/11/24 03:46:08;;;;;;;5.85;1.48;;;;;;;7.23;56.01;98931.63;5081014;28;20047;-66
2023/11/24 03:48:33;;;;;;;7.40;1.55;;;;;;;7.37;55.43;98944.84;5086566;28;20016;-66
2023/11/24 03:50:58;;;;;;;8.02;1.50;;;;;;;7.29;54.72;98943.31;5083420;28;20021;-66
2023/11/24 03:53:24;;;;;;;3.78;0.88;;;;;;;7.30;53.60;98942.25;5079340;28;20036;-66
2023/11/24 03:55:50;;;;;;;7.97;1.52;;;;;;;7.16;55.13;98946.13;5061916;28;20028;-66
2023/11/24 03:58:15;;;;;;;4.68;0.98;;;;;;;7.22;53.79;98929.19;5079623;28;20071;-66
2023/11/24 04:00:40;;;;;;;5.28;1.05;;;;;;;7.30;54.04;98948.41;5078416;28;20032;-66
2023/11/24 04:03:06;;;;;;;4.38;1.05;;;;;;;7.13;53.94;98923.31;5080779;28;20024;-66
2023/11/24 04:05:31;;;;;;;5.15;0.75;;;;;;;7.33;53.79;98906.22;5081346;28;20025;-66
2023/11/24 04:07:57;;;;;;;6.40;1.30;;;;;;;7.32;53.98;98937.50;5078870;28;20151;-66
2023/11/24 04:10:22;;;;;;;4.40;0.73;;;;;;;7.14;53.26;98929.47;5076330;28;20040;-66
2023/11/24 04:12:48;;;;;;;7.18;1.13;;;;;;;7.33;54.84;98930.28;5078302;28;20029;-66
2023/11/24 04:15:14;;;;;;;6.03;0.95;;;;;;;7.12;53.88;98897.63;5080230;28;20039;-66
2023/11/24 04:17:39;;;;;;;7.53;0.98;;;;;;;7.47;54.57;98921.88;5078604;28;20059;-66
2023/11/24 04:20:07;;;;;;;4.60;0.73;;;;;;;7.37;54.38;98912.75;5080352;28;20029;-66
2023/11/24 04:22:34;;;;;;;8.52;1.10;;;;;;;7.51;54.15;98906.19;5095566;28;20029;-66
2023/11/24 04:24:59;;;;;;;5.05;0.98;;;;;;;7.25;53.40;98884.09;5080187;28;20032;-65
2023/11/24 04:27:24;;;;;;;6.60;0.93;;;;;;;7.40;53.26;98899.72;5079133;28;20025;-66
2023/11/24 04:29:50;;;;;;;3.15;0.80;;;;;;;7.35;52.82;98890.72;5079811;28;20576;-66
2023/11/24 04:32:15;;;;;;;4.70;1.02;;;;;;;7.48;53.63;98883.38;5078655;28;20024;-66
2023/11/24 04:34:41;;;;;;;8.07;1.10;;;;;;;7.20;53.22;98862.53;5078742;28;20071;-66
2023/11/24 04:37:06;;;;;;;6.32;0.88;;;;;;;7.44;53.38;98884.03;5078072;28;20039;-66
2023/11/24 04:39:32;;;;;;;5.72;1.10;;;;;;;7.48;54.40;98891.41;5078754;28;20029;-66
2023/11/24 04:41:57;;;;;;;6.70;1.05;;;;;;;7.48;54.65;98882.53;5079243;28;20040;-66
2023/11/24 04:44:22;;;;;;;5.47;0.70;;;;;;;7.61;53.98;98873.53;5077799;28;20036;-66
2023/11/24 04:46:48;;;;;;;8.20;1.48;;;;;;;7.43;54.75;98871.72;5079186;28;20028;-66
2023/11/24 04:49:13;;;;;;;2.33;0.43;;;;;;;7.54;54.62;98876.28;5078344;28;20024;-66
2023/11/24 04:51:39;;;;;;;6.47;0.95;;;;;;;7.66;55.13;98866.44;5084003;28;20032;-66
2023/11/24 04:54:04;;;;;;;4.88;0.93;;;;;;;7.51;54.93;98866.84;5079468;28;20043;-66
2023/11/24 04:56:30;;;;;;;8.25;1.48;;;;;;;7.43;56.45;98848.44;5077910;28;20038;-66
2023/11/24 04:58:56;;;;;;;3.83;0.63;;;;;;;7.43;55.94;98847.63;5078523;28;20040;-66
2023/11/24 05:01:22;;;;;;;5.28;0.77;;;;;;;7.54;55.71;98854.88;5078362;28;20074;-66
2023/11/24 05:03:50;;;;;;;6.80;1.15;;;;;;;7.28;56.07;98840.00;5076579;28;20029;-66
2023/11/24 05:06:16;;;;;;;5.25;0.82;;;;;;;7.41;56.33;98834.47;5074693;28;20040;-66
2023/11/24 05:08:42;;;;;;;2.30;0.57;;;;;;;7.27;55.68;98847.19;5077855;28;20040;-66
2023/11/24 05:11:07;;;;;;;4.78;0.90;;;;;;;7.42;56.77;98837.97;5090553;28;20032;-65
2023/11/24 05:13:33;;;;;;;10.13;1.20;;;;;;;7.42;56.59;98824.59;5091683;28;20149;-66
2023/11/24 05:15:59;;;;;;;6.50;1.30;;;;;;;7.37;57.66;98816.41;5081521;28;20017;-67
2023/11/24 05:18:25;;;;;;;6.47;1.20;;;;;;;7.24;58.53;98812.88;5078916;28;20021;-67
2023/11/24 05:20:53;;;;;;;4.72;1.15;;;;;;;7.16;57.64;98801.69;5078535;28;20028;-66
2023/11/24 05:23:19;;;;;;;5.47;1.05;;;;;;;7.25;57.88;98803.81;5078076;28;20028;-67
2023/11/24 05:25:45;;;;;;;4.18;0.82;;;;;;;7.31;57.96;98804.75;5079988;28;20032;-66
2023/11/24 05:28:10;;;;;;;7.32;0.95;;;;;;;7.27;57.49;98790.22;5078702;28;20032;-67
2023/11/24 05:30:36;;;;;;;3.20;0.65;;;;;;;7.25;58.98;98793.13;5079052;28;20028;-66
2023/11/24 05:33:02;;;;;;;8.38;1.05;;;;;;;7.45;58.04;98805.38;5078402;28;20028;-66
2023/11/24 05:35:28;;;;;;;5.88;1.17;;;;;;;7.37;57.88;98803.84;5076300;28;20411;-66
2023/11/24 05:37:53;;;;;;;7.25;1.52;;;;;;;7.25;55.96;98806.50;5078605;28;20483;-68
2023/11/24 05:40:19;;;;;;;5.38;1.20;;;;;;;7.35;57.63;98808.63;5077973;28;20093;-68
2023/11/24 05:42:44;;;;;;;5.22;1.10;;;;;;;7.27;57.05;98793.69;5079542;28;20059;-67
2023/11/24 05:45:12;;;;;;;7.28;1.75;;;;;;;7.26;56.21;98768.00;5078629;28;20028;-68
2023/11/24 05:47:37;;;;;;;5.53;0.77;;;;;;;7.42;55.74;98785.28;5077130;28;20032;-67
2023/11/24 05:50:05;;;;;;;7.93;1.35;;;;;;;7.47;57.96;98776.56;5080392;28;20032;-68
2023/11/24 05:52:34;;;;;;;6.95;1.20;;;;;;;7.43;58.97;98762.00;5081330;28;20024;-68
2023/11/24 05:55:00;;;;;;;8.35;1.58;;;;;;;7.32;60.94;98773.47;5078657;28;20028;-67
2023/11/24 05:57:27;;;;;;;7.10;1.77;;;;;;;7.43;63.01;98775.38;5078850;28;20020;-68
2023/11/24 05:59:52;;;;;;;9.50;1.77;;;;;;;7.42;63.60;98795.97;5091778;28;20410;-67
2023/11/24 06:02:18;;;;;;;8.30;1.45;;;;;;;7.26;61.18;98777.88;5096250;28;20016;-68
2023/11/24 06:04:43;;;;;;;7.45;1.33;;;;;;;7.41;61.52;98746.16;5095916;28;20505;-68
2023/11/24 06:07:09;;;;;;;10.77;1.60;;;;;;;7.22;60.05;98748.09;5098745;28;20024;-68
2023/11/24 06:09:34;;;;;;;9.27;1.60;;;;;;;7.23;60.26;98770.31;5100421;28;20028;-67
2023/11/24 06:12:01;;;;;;;6.55;1.33;;;;;;;7.11;58.08;98723.97;5098787;28;20134;-67
2023/11/24 06:14:26;;;;;;;5.75;1.10;;;;;;;7.18;57.51;98728.19;5097281;28;20024;-67
2023/11/24 06:16:52;;;;;;;7.97;1.58;;;;;;;7.34;58.35;98758.00;5098776;28;20281;-67
2023/11/24 06:19:18;;;;;;;9.57;1.13;;;;;;;7.20;57.63;98760.88;5097142;28;20016;-67
2023/11/24 06:21:43;;;;;;;7.50;1.10;;;;;;;7.24;56.79;98747.88;5098405;28;20457;-68
2023/11/24 06:24:16;;;;;;;6.28;1.25;;;;;;;7.36;57.95;98743.38;5098556;28;20053;-68
2023/11/24 06:26:42;;;;;;;7.32;1.25;;;;;;;7.38;59.63;98754.66;5098582;28;20024;-67
2023/11/24 06:29:08;;;;;;;5.32;0.85;;;;;;;7.58;58.88;98746.31;5098382;28;20035;-67
2023/11/24 06:31:33;;;;;;;7.00;1.63;;;;;;;7.31;57.63;98737.88;5082040;28;20055;-67
2023/11/24 06:33:59;;;;;;;4.63;1.17;;;;;;;7.30;57.42;98729.03;5098779;28;20028;-68
2023/11/24 06:36:26;;;;;;;4.90;0.95;;;;;;;7.39;56.82;98740.25;5098173;28;20044;-67
2023/11/24 06:38:51;;;;;;;3.95;0.85;;;;;;;7.51;56.79;98738.38;5095928;28;20038;-67
2023/11/24 06:41:17;;;;;;;4.70;0.77;;;;;;;7.09;54.53;98726.09;5093309;28;20028;-68
2023/11/24 06:43:43;;;;;;;3.92;0.80;;;;;;;7.33;56.23;98733.13;5098558;28;20087;-67
2023/11/24 06:46:08;;;;;;;3.00;0.65;;;;;;;7.37;55.93;98739.66;5097684;28;20031;-68
2023/11/24 06:48:34;;;;;;;7.57;1.27;;;;;;;7.50;55.34;98749.34;5097224;28;20028;-69
2023/11/24 06:51:00;;;;;;;2.88;0.70;;;;;;;7.52;55.81;98742.72;5098099;28;20121;-69
2023/11/24 06:53:26;;;;;;;5.95;0.57;;;;;;;7.62;56.94;98738.66;5099794;28;20036;-69
2023/11/24 06:55:52;;;;;;;3.78;0.30;;;;;;;7.56;56.53;98744.94;5099544;28;20395;-69
2023/11/24 06:58:18;;;;;;;4.22;0.90;;;;;;;7.54;57.42;98735.25;5099667;28;20048;-69
2023/11/24 07:00:43;;;;;;;4.32;0.60;;;;;;;7.58;56.84;98748.97;5082165;28;20070;-69
2023/11/24 07:03:09;;;;;;;3.10;0.43;;;;;;;7.64;56.14;98750.75;5103457;28;20034;-69
2023/11/24 07:05:35;;;;;;;4.25;0.70;;;;;;;7.49;54.93;98742.34;5105474;28;20031;-69
2023/11/24 07:08:01;;;;;;;5.43;0.57;;;;;;;7.49;55.51;98742.34;5104025;28;20043;-69
2023/11/24 07:10:27;;;;;;;5.20;0.85;;;;;;;7.71;55.42;98761.34;5085913;28;20389;-68
2023/11/24 07:12:53;;;;;;;2.85;0.47;;;;;;;7.76;54.97;98758.81;5100271;28;20032;-69
2023/11/24 07:15:18;;;;;;;2.35;0.38;;;;;;;7.57;55.86;98727.81;5082241;28;20048;-69
2023/11/24 07:17:44;;;;;;;5.07;0.73;;;;;;;7.62;54.34;98760.06;5083255;28;20126;-69
2023/11/24 07:20:14;;;;;;;1.52;0.30;;;;;;;7.69;54.95;98758.09;5078180;28;20363;-69
2023/11/24 07:22:41;;;;;;;1.90;0.60;;;;;;;7.56;55.18;98755.63;5099573;28;20028;-69
2023/11/24 07:25:07;;;;;;;3.78;0.82;;;;;;;7.63;54.99;98753.66;5098143;28;20024;-69
2023/11/24 07:27:33;;;;;;;5.68;0.70;;;;;;;7.60;53.94;98744.22;5098229;28;20367;-69
2023/11/24 07:29:58;;;;;;;6.65;0.70;;;;;;;7.46;54.07;98759.69;5100005;28;20081;-68
2023/11/24 07:32:28;;;;;;;3.08;0.52;;;;;;;7.39;54.25;98755.47;5098959;28;20032;-69
2023/11/24 07:34:54;;;;;;;4.65;0.50;;;;;;;7.18;53.34;98767.50;5081865;28;20056;-68
2023/11/24 07:37:20;;;;;;;3.97;0.50;;;;;;;7.21;52.33;98780.41;5100279;28;20090;-69
2023/11/24 07:39:45;;;;;;;3.55;0.63;;;;;;;7.20;52.30;98776.13;5100013;28;20115;-69
2023/11/24 07:42:11;;;;;;;4.10;0.73;;;;;;;7.10;52.64;98773.16;5082475;28;20032;-69
2023/11/24 07:44:36;;;;;;;3.75;0.60;;;;;;;7.21;51.89;98769.72;5099724;28;20031;-68
2023/11/24 07:47:02;;;;;;;4.35;0.60;;;;;;;7.01;51.42;98760.09;5082493;28;20055;-69
2023/11/24 07:49:28;;;;;;;7.70;0.75;;;;;;;6.96;52.38;98748.47;5098813;28;20495;-68
2023/11/24 07:51:53;;;;;;;1.42;0.35;;;;;;;6.97;51.88;98777.66;5100456;28;20036;-69
2023/11/24 07:54:19;;;;;;;1.55;0.40;;;;;;;7.00;51.73;98774.53;5099089;28;20035;-69
2023/11/24 07:56:45;;;;;;;2.65;0.50;;;;;;;7.02;52.34;98774.31;5098524;28;20032;-69
2023/11/24 07:59:15;;;;;;;3.78;0.40;;;;;;;6.93;51.71;98773.78;5094244;28;20445;-69
2023/11/24 08:01:41;;;;;;;1.73;0.52;;;;;;;7.01;52.17;98768.13;5093927;28;20032;-68
2023/11/24 08:04:07;;;;;;;3.40;0.50;;;;;;;6.99;52.19;98780.91;5099700;28;20027;-69
2023/11/24 08:06:33;;;;;;;2.40;0.50;;;;;;;7.01;52.34;98778.81;5098771;28;20021;-69
2023/11/24 08:09:03;;;;;;;3.03;0.50;;;;;;;6.98;52.21;98781.94;5100593;28;20031;-69
2023/11/24 08:11:30;;;;;;;4.85;0.60;;;;;;;6.77;52.04;98772.53;5103855;28;20418;-68
2023/11/24 08:13:57;;;;;;;3.22;0.40;;;;;;;6.85;52.49;98776.75;5096530;28;20090;-68
2023/11/24 08:16:23;;;;;;;3.95;0.50;;;;;;;6.87;51.87;98761.31;5080348;28;20028;-69
2023/11/24 08:18:49;;;;;;;2.17;0.50;;;;;;;6.72;52.27;98783.09;5101860;28;20357;-69
2023/11/24 08:21:15;;;;;;;3.97;0.70;;;;;;;6.88;51.92;98784.34;5101914;28;20059;-68
2023/11/24 08:23:41;;;;;;;1.40;0.30;;;;;;;6.85;51.74;98781.28;5100592;28;20063;-68
2023/11/24 08:26:07;;;;;;;3.35;0.50;;;;;;;6.90;52.00;98787.59;5101842;28;20077;-69
2023/11/24 08:28:33;;;;;;;4.82;0.60;;;;;;;6.81;51.33;98795.09;5104150;28;20024;-68
2023/11/24 08:30:58;;;;;;;2.75;0.57;;;;;;;6.82;51.19;98791.41;5103151;28;20044;-69
2023/11/24 08:33:26;;;;;;;1.05;0.30;;;;;;;6.89;51.68;98785.16;5101492;28;20056;-69
2023/11/24 08:35:51;;;;;;;4.28;0.50;;;;;;;6.84;51.88;98788.50;5102310;28;20103;-69
2023/11/24 08:38:17;;;;;;;2.58;0.47;;;;;;;6.74;52.02;98770.31;5102157;28;20055;-69
2023/11/24 08:40:42;;;;;;;6.25;0.63;;;;;;;7.00;51.87;98787.06;5100749;28;20039;-69
2023/11/24 08:43:07;;;;;;;4.80;0.82;;;;;;;7.04;51.28;98796.28;5102920;28;20035;-68
2023/11/24 08:45:36;;;;;;;3.15;0.50;;;;;;;6.92;51.58;98777.53;5102458;28;20039;-69
2023/11/24 08:48:03;;;;;;;3.67;0.60;;;;;;;7.27;50.30;98792.88;5100286;28;20039;-69
2023/11/24 08:50:29;;;;;;;2.50;0.65;;;;;;;7.29;49.80;98802.31;5102462;28;20031;-69
2023/11/24 08:52:55;;;;;;;4.07;0.60;;;;;;;7.09;49.64;98806.31;5101882;28;20024;-68
2023/11/24 08:55:20;;;;;;;3.08;0.40;;;;;;;7.26;49.69;98812.66;5102838;28;20055;-68
2023/11/24 08:57:46;;;;;;;3.28;0.65;;;;;;;7.44;49.36;98807.25;5101257;28;20024;-69
2023/11/24 09:00:16;;;;;;;2.88;0.40;;;;;;;7.45;49.63;98808.06;5084524;28;20074;-68
2023/11/24 09:02:41;;;;;;;3.13;0.52;;;;;;;7.30;49.21;98816.50;5103188;28;20052;-69
2023/11/24 09:05:09;;;;;;;1.52;0.38;;;;;;;7.39;49.03;98819.69;5106224;28;20035;-69
2023/11/24 09:07:34;;;;;;;2.05;0.30;;;;;;;7.18;49.06;98821.78;5107737;28;20489;-68
2023/11/24 09:10:02;;;;;;;3.70;0.50;;;;;;;7.22;48.40;98823.00;5107570;28;20028;-69
2023/11/24 09:12:27;;;;;;;1.88;0.40;;;;;;;7.07;48.83;98804.66;5101104;28;20053;-69
2023/11/24 09:14:53;;;;;;;3.83;0.80;;;;;;;7.00;48.54;98835.22;5100867;28;20479;-68
2023/11/24 09:17:20;;;;;;;2.35;0.50;;;;;;;6.99;48.86;98828.25;5102966;28;20026;-69
2023/11/24 09:19:46;;;;;;;3.45;0.30;;;;;;;6.89;48.37;98823.41;5101858;28;20036;-69
2023/11/24 09:22:12;;;;;;;3.33;0.50;;;;;;;6.79;48.88;98801.75;5104238;28;20512;-69
2023/11/24 09:24:37;;;;;;;3.20;0.50;;;;;;;6.92;49.40;98827.47;5100964;28;20035;-68
2023/11/24 09:27:03;;;;;;;3.25;0.50;;;;;;;6.97;49.35;98836.47;5100056;28;20069;-69
2023/11/24 09:29:29;;;;;;;1.45;0.70;;;;;;;6.97;49.65;98827.63;5100845;28;20024;-68
2023/11/24 09:31:57;;;;;;;3.35;0.60;;;;;;;7.10;49.21;98842.69;5100995;28;20077;-68
2023/11/24 09:34:23;;;;;;;3.00;0.47;;;;;;;7.03;49.14;98840.91;5101770;28;20088;-69
2023/11/24 09:36:48;;;;;;;3.72;0.50;;;;;;;7.17;48.76;98846.09;5100831;28;20498;-69
2023/11/24 09:39:17;;;;;;;1.58;0.30;;;;;;;7.12;49.13;98848.63;5102611;28;20395;-69
2023/11/24 09:41:48;;;;;;;3.00;0.60;;;;;;;6.79;49.76;98823.13;5083908;28;20028;-69
2023/11/24 09:44:15;;;;;;;1.83;0.30;;;;;;;6.76;50.04;98845.75;5098962;28;20039;-69
2023/11/24 09:46:43;;;;;;;1.80;0.30;;;;;;;6.74;49.34;98857.72;5095935;28;20669;-69
2023/11/24 09:49:09;;;;;;;2.75;0.32;;;;;;;6.89;49.26;98851.97;5096674;28;20039;-69
2023/11/24 09:51:37;;;;;;;4.32;0.50;;;;;;;6.77;49.51;98842.03;5095030;28;20020;-68
2023/11/24 09:54:03;;;;;;;1.75;0.32;;;;;;;6.80;49.69;98846.13;5098731;28;20035;-68
2023/11/24 09:56:29;;;;;;;5.53;0.40;;;;;;;6.95;49.38;98838.53;5084247;28;20099;-69
2023/11/24 09:58:54;;;;;;;2.00;0.32;;;;;;;6.70;49.34;98845.84;5102222;28;20072;-69
2023/11/24 10:01:23;;;;;;;2.15;0.50;;;;;;;6.66;49.56;98847.31;5101030;28;20044;-68
2023/11/24 10:03:55;;;;;;;2.20;0.20;;;;;;;6.90;49.47;98841.06;5101452;28;20062;-69
2023/11/24 10:06:20;;;;;;;1.25;0.30;;;;;;;6.91;49.00;98840.03;5100856;28;20050;-69
2023/11/24 10:08:46;;;;;;;5.55;0.38;;;;;;;6.90;49.70;98841.06;5099647;28;20032;-69
2023/11/24 10:11:14;;;;;;;3.42;0.40;;;;;;;6.75;49.94;98838.75;5100474;28;20035;-69
2023/11/24 10:13:44;;;;;;;1.65;0.40;;;;;;;6.69;49.59;98842.34;5099279;28;20536;-68
2023/11/24 10:16:13;;;;;;;1.67;0.40;;;;;;;6.53;49.34;98841.06;5100518;28;20021;-69
2023/11/24 10:18:41;;;;;;;1.98;0.30;;;;;;;6.74;49.40;98829.13;5082894;28;20020;-68
2023/11/24 10:21:09;;;;;;;2.60;0.30;;;;;;;6.76;48.85;98858.31;5083454;28;20038;-68
2023/11/24 10:23:35;;;;;;;1.23;0.20;;;;;;;6.71;47.60;98860.81;5100004;28;20142;-68
2023/11/24 10:26:01;;;;;;;1.42;0.35;;;;;;;6.89;47.75;98850.16;5099503;28;20058;-68
2023/11/24 10:28:27;;;;;;;2.17;0.30;;;;;;;6.82;47.43;98852.06;5098671;28;20034;-68
2023/11/24 10:30:57;;;;;;;0.73;0.20;;;;;;;6.81;47.23;98847.75;5081333;28;20073;-69
2023/11/24 10:33:26;;;;;;;0.88;0.20;;;;;;;6.92;46.74;98860.41;5096562;28;20057;-68
2023/11/24 10:35:54;;;;;;;0.43;0.10;;;;;;;6.89;46.36;98854.66;5111395;28;20023;-68
2023/11/24 10:38:20;;;;;;;1.25;0.17;;;;;;;6.49;46.58;98790.94;5100333;28;20032;-68
2023/11/24 10:40:49;;;;;;;1.00;0.35;;;;;;;6.52;46.71;98835.94;5081733;28;20510;-69
2023/11/24 10:43:21;;;;;;;1.40;0.30;;;;;;;6.47;47.56;98841.94;5099200;28;20036;-69
2023/11/24 10:45:51;;;;;;;1.58;0.30;;;;;;;6.53;46.99;98867.78;5100293;28;20024;-69
2023/11/24 10:48:21;;;;;;;3.70;0.75;;;;;;;6.72;46.83;98883.84;5098552;28;20110;-69
2023/11/24 10:50:56;;;;;;;5.57;0.50;;;;;;;6.68;47.49;98891.47;5101224;28;20023;-68
2023/11/24 10:53:35;;;;;;;3.13;0.45;;;;;;;6.62;47.11;98900.38;5100704;28;20020;-68
2023/11/24 10:56:03;;;;;;;1.95;0.20;;;;;;;6.48;46.75;98894.34;5100720;28;20047;-69
2023/11/24 10:58:30;;;;;;;1.35;0.38;;;;;;;6.43;46.99;98902.22;5098586;28;20402;-68
2023/11/24 11:00:56;;;;;;;1.27;0.30;;;;;;;6.48;47.36;98907.69;5098945;28;20440;-68
2023/11/24 11:03:22;;;;;;;1.77;0.30;;;;;;;6.62;47.14;98902.22;5102261;28;20060;-68
2023/11/24 11:05:51;;;;;;;3.13;0.32;;;;;;;6.47;47.36;98931.97;5105342;28;20105;-68
2023/11/24 11:08:34;;;;;;;0.88;0.20;;;;;;;6.48;46.51;98926.41;5101012;28;20481;-68
2023/11/24 11:11:12;;;;;;;0.95;0.20;;;;;;;6.62;46.79;98931.63;5098022;28;20050;-68
2023/11/24 11:13:43;;;;;;;1.33;0.40;;;;;;;6.48;46.26;98910.38;5097515;28;20028;-68
2023/11/24 11:16:12;;;;;;;1.42;0.20;;;;;;;6.54;46.98;98909.50;5099360;28;20131;-68
2023/11/24 11:18:38;;;;;;;0.90;0.17;;;;;;;6.52;45.76;98914.25;5098245;28;20506;-68
2023/11/24 11:21:15;;;;;;;1.08;0.10;;;;;;;6.73;46.32;98920.22;5097381;28;20032;-69
2023/11/24 11:23:41;;;;;;;0.77;0.20;;;;;;;6.50;45.67;98923.53;5093796;28;20028;-68
2023/11/24 11:26:07;;;;;;;1.75;0.17;;;;;;;6.49;45.22;98930.72;5094027;28;20035;-68
2023/11/24 11:28:39;;;;;;;0.57;0.10;;;;;;;6.56;45.60;98919.97;5092122;28;20031;-69
2023/11/24 11:31:27;;;;;;;1.67;0.20;;;;;;;6.37;45.17;98926.31;5097315;28;20112;-68
2023/11/24 11:33:53;;;;;;;1.02;0.25;;;;;;;6.67;45.47;98913.09;5098664;28;20053;-68
2023/11/24 11:36:19;;;;;;;2.35;0.20;;;;;;;6.67;45.68;98915.75;5097549;28;20032;-68
2023/11/24 11:38:52;;;;;;;0.50;0.13;;;;;;;6.81;45.09;98920.75;5099879;28;20428;-68